Time;durP1;ratioP1;P1;durP2;ratioP2;P2;SDS_P1;SDS_P2;PMS_P1;PMS_P2;Temp;Humidity;BMP_temperature;BMP_pressure;BME280_temperature;BME280_humidity;BME280_pressure;Samples;Min_cycle;Max_cycle;Signal;HPM_P1;HPM_P2
2023/08/12 00:01:02;;;;;;;2.63;2.33;;;;;;;;;;5098382;28;22199;-69
2023/08/12 00:03:30;;;;;;;4.15;3.25;;;;;;;;;;5099852;28;20205;-70
2023/08/12 00:06:00;;;;;;;4.93;2.22;;;;;;;;;;5099724;28;20289;-70
2023/08/12 00:08:28;;;;;;;3.08;1.80;;;;;;;;;;5099826;28;20244;-68
2023/08/12 00:10:58;;;;;;;7.07;1.80;;;;;;;;;;5099719;28;20225;-70
2023/08/12 00:13:25;;;;;;;3.15;2.08;;;;;;;;;;5099974;28;20197;-68
2023/08/12 00:15:53;;;;;;;3.95;2.20;;;;;;;;;;5099622;28;20231;-69
2023/08/12 00:18:21;;;;;;;2.30;2.08;;;;;;;;;;5099818;28;20215;-70
2023/08/12 00:20:49;;;;;;;3.45;2.05;;;;;;;;;;5099683;28;20232;-69
2023/08/12 00:23:16;;;;;;;3.25;1.73;;;;;;;;;;5099468;28;20617;-69
2023/08/12 00:25:44;;;;;;;2.83;2.55;;;;;;;;;;5099671;28;20217;-69
2023/08/12 00:28:13;;;;;;;1.85;1.75;;;;;;;;;;5098905;28;20202;-69
2023/08/12 00:30:41;;;;;;;4.13;2.13;;;;;;;;;;5099578;28;20233;-69
2023/08/12 00:33:09;;;;;;;2.38;2.00;;;;;;;;;;5099250;28;20206;-70
2023/08/12 00:35:37;;;;;;;3.63;2.20;;;;;;;;;;5099665;28;20670;-70
2023/08/12 00:38:04;;;;;;;2.30;2.05;;;;;;;;;;5099325;28;20232;-69
2023/08/12 00:40:32;;;;;;;3.05;1.90;;;;;;;;;;5090876;28;20218;-69
2023/08/12 00:43:00;;;;;;;2.30;1.88;;;;;;;;;;5096836;28;20725;-68
2023/08/12 00:45:29;;;;;;;2.60;1.80;;;;;;;;;;5099253;28;20255;-70
2023/08/12 00:47:57;;;;;;;2.90;2.20;;;;;;;;;;5099366;28;20207;-70
2023/08/12 00:50:25;;;;;;;2.50;2.30;;;;;;;;;;5099303;28;20224;-70
2023/08/12 00:52:53;;;;;;;4.55;1.98;;;;;;;;;;5098054;28;20209;-70
2023/08/12 00:55:21;;;;;;;3.95;2.38;;;;;;;;;;5099215;28;20226;-70
2023/08/12 00:57:49;;;;;;;2.10;1.77;;;;;;;;;;5098802;28;20235;-68
2023/08/12 01:00:19;;;;;;;3.53;2.08;;;;;;;;;;5098658;28;20645;-70
2023/08/12 01:02:49;;;;;;;5.88;2.10;;;;;;;;;;5098860;28;20243;-70
2023/08/12 01:05:17;;;;;;;2.97;1.70;;;;;;;;;;5099017;28;20272;-69
2023/08/12 01:07:46;;;;;;;5.20;2.10;;;;;;;;;;5098398;28;20567;-69
2023/08/12 01:10:15;;;;;;;2.28;2.08;;;;;;;;;;5098647;28;20239;-70
2023/08/12 01:12:45;;;;;;;5.28;2.10;;;;;;;;;;5098818;28;20210;-70
2023/08/12 01:15:15;;;;;;;3.97;1.92;;;;;;;;;;5098676;28;20207;-68
2023/08/12 01:17:44;;;;;;;3.00;1.73;;;;;;;;;;5097875;28;20245;-69
2023/08/12 01:20:14;;;;;;;2.90;1.88;;;;;;;;;;5098741;28;20230;-70
2023/08/12 01:22:43;;;;;;;4.53;1.92;;;;;;;;;;5097740;28;20231;-70
2023/08/12 01:25:12;;;;;;;4.78;2.10;;;;;;;;;;5098580;28;20218;-70
2023/08/12 01:27:39;;;;;;;2.47;1.85;;;;;;;;;;5098644;28;20215;-70
2023/08/12 01:30:10;;;;;;;3.88;2.10;;;;;;;;;;5097931;28;20342;-70
2023/08/12 01:32:41;;;;;;;4.85;1.73;;;;;;;;;;5098549;28;21049;-70
2023/08/12 01:35:11;;;;;;;3.58;2.25;;;;;;;;;;5098603;28;20312;-70
2023/08/12 01:37:40;;;;;;;2.35;2.08;;;;;;;;;;5098097;28;20321;-70
2023/08/12 01:40:09;;;;;;;1.98;1.60;;;;;;;;;;5093239;28;20222;-70
2023/08/12 01:42:40;;;;;;;1.98;1.80;;;;;;;;;;5093767;28;20208;-70
2023/08/12 01:45:08;;;;;;;3.35;1.80;;;;;;;;;;5086202;28;20209;-69
2023/08/12 01:47:36;;;;;;;7.78;2.22;;;;;;;;;;5096803;28;20636;-69
2023/08/12 01:50:04;;;;;;;3.28;2.08;;;;;;;;;;5098225;28;20269;-70
2023/08/12 01:52:31;;;;;;;2.97;1.98;;;;;;;;;;5097893;28;20208;-69
2023/08/12 01:54:59;;;;;;;4.55;1.90;;;;;;;;;;5098287;28;20216;-70
2023/08/12 01:57:27;;;;;;;2.20;2.00;;;;;;;;;;5097815;28;20243;-70
2023/08/12 01:59:56;;;;;;;3.97;1.90;;;;;;;;;;5097079;28;20246;-70
2023/08/12 02:02:24;;;;;;;3.85;1.95;;;;;;;;;;5098260;28;20291;-70
2023/08/12 02:04:51;;;;;;;1.70;1.60;;;;;;;;;;5096272;28;20227;-70
2023/08/12 02:07:19;;;;;;;4.70;2.72;;;;;;;;;;5097418;28;20201;-70
2023/08/12 02:09:47;;;;;;;2.50;1.73;;;;;;;;;;5097719;28;20209;-70
2023/08/12 02:12:14;;;;;;;3.65;2.40;;;;;;;;;;5097960;28;20205;-69
2023/08/12 02:14:42;;;;;;;2.70;1.77;;;;;;;;;;5098101;28;20208;-69
2023/08/12 02:17:11;;;;;;;2.55;1.75;;;;;;;;;;5097869;28;20229;-69
2023/08/12 02:19:39;;;;;;;3.03;1.98;;;;;;;;;;5098056;28;20205;-70
2023/08/12 02:22:07;;;;;;;2.22;2.03;;;;;;;;;;5097623;28;20210;-70
2023/08/12 02:24:35;;;;;;;4.32;1.88;;;;;;;;;;5096922;28;20628;-69
2023/08/12 02:27:03;;;;;;;1.70;1.60;;;;;;;;;;5097941;28;20234;-70
2023/08/12 02:29:31;;;;;;;4.47;2.35;;;;;;;;;;5097408;28;20270;-70
2023/08/12 02:31:58;;;;;;;2.20;2.00;;;;;;;;;;5097931;28;20238;-70
2023/08/12 02:34:28;;;;;;;2.92;2.03;;;;;;;;;;5097834;28;20207;-69
2023/08/12 02:36:55;;;;;;;4.28;1.95;;;;;;;;;;5097440;28;20210;-70
2023/08/12 02:39:23;;;;;;;6.53;2.20;;;;;;;;;;5097494;28;20230;-69
2023/08/12 02:41:51;;;;;;;3.97;2.03;;;;;;;;;;5090821;28;20223;-69
2023/08/12 02:44:18;;;;;;;5.60;2.17;;;;;;;;;;5101546;28;20235;-69
2023/08/12 02:46:46;;;;;;;4.85;1.98;;;;;;;;;;5101783;28;20659;-68
2023/08/12 02:49:14;;;;;;;2.50;1.95;;;;;;;;;;5101123;28;20232;-70
2023/08/12 02:51:43;;;;;;;2.95;1.67;;;;;;;;;;5100990;28;20245;-69
2023/08/12 02:54:11;;;;;;;3.85;1.90;;;;;;;;;;5101326;28;20262;-70
2023/08/12 02:56:38;;;;;;;3.05;2.00;;;;;;;;;;5101353;28;20205;-70
2023/08/12 02:59:06;;;;;;;3.00;1.73;;;;;;;;;;5100680;28;20229;-70
2023/08/12 03:01:34;;;;;;;1.97;1.77;;;;;;;;;;5101031;28;20604;-69
2023/08/12 03:04:02;;;;;;;3.75;1.75;;;;;;;;;;5101385;28;20205;-70
2023/08/12 03:06:30;;;;;;;3.17;1.90;;;;;;;;;;5100769;28;20660;-70
2023/08/12 03:08:59;;;;;;;4.10;2.20;;;;;;;;;;5101053;28;20198;-70
2023/08/12 03:11:27;;;;;;;4.22;1.73;;;;;;;;;;5101250;28;20229;-70
2023/08/12 03:13:55;;;;;;;2.75;1.70;;;;;;;;;;5099528;28;20683;-68
2023/08/12 03:16:23;;;;;;;2.50;2.08;;;;;;;;;;5100834;28;20217;-69
2023/08/12 03:18:50;;;;;;;3.67;1.77;;;;;;;;;;5101055;28;20403;-70
2023/08/12 03:21:18;;;;;;;3.38;2.10;;;;;;;;;;5100683;28;20225;-68
2023/08/12 03:23:46;;;;;;;3.53;1.97;;;;;;;;;;5101041;28;20212;-70
2023/08/12 03:26:15;;;;;;;2.30;2.10;;;;;;;;;;5100847;28;20657;-69
2023/08/12 03:28:43;;;;;;;3.20;1.85;;;;;;;;;;5100819;28;20565;-68
2023/08/12 03:31:11;;;;;;;2.53;1.75;;;;;;;;;;5100651;28;20714;-69
2023/08/12 03:33:39;;;;;;;3.95;1.95;;;;;;;;;;5100910;28;20205;-70
2023/08/12 03:36:06;;;;;;;3.55;2.08;;;;;;;;;;5100314;28;20223;-69
2023/08/12 03:38:35;;;;;;;4.43;1.83;;;;;;;;;;5099672;28;20219;-69
2023/08/12 03:41:03;;;;;;;2.73;1.70;;;;;;;;;;5089590;28;20228;-69
2023/08/12 03:43:33;;;;;;;5.87;1.60;;;;;;;;;;5100694;28;20236;-69
2023/08/12 03:46:01;;;;;;;3.42;1.77;;;;;;;;;;5100244;28;20268;-68
2023/08/12 03:48:29;;;;;;;2.20;2.00;;;;;;;;;;5100639;28;20205;-68
2023/08/12 03:50:56;;;;;;;2.17;1.80;;;;;;;;;;5099972;28;20262;-69
2023/08/12 03:53:24;;;;;;;2.33;1.70;;;;;;;;;;5100004;28;20205;-68
2023/08/12 03:55:52;;;;;;;2.67;1.93;;;;;;;;;;5100467;28;20209;-68
2023/08/12 03:58:20;;;;;;;2.38;1.80;;;;;;;;;;5099212;28;20227;-70
2023/08/12 04:00:49;;;;;;;2.47;1.60;;;;;;;;;;5086583;28;20331;-69
2023/08/12 04:03:17;;;;;;;2.57;1.70;;;;;;;;;;5100323;28;20212;-69
2023/08/12 04:05:48;;;;;;;1.87;1.70;;;;;;;;;;5100069;28;20212;-68
2023/08/12 04:08:16;;;;;;;2.83;1.80;;;;;;;;;;5099864;28;20564;-70
2023/08/12 04:10:45;;;;;;;3.17;1.73;;;;;;;;;;5099824;28;20229;-70
2023/08/12 04:13:13;;;;;;;2.30;1.90;;;;;;;;;;5098800;28;20285;-68
2023/08/12 04:15:40;;;;;;;1.90;1.70;;;;;;;;;;5099645;28;20213;-68
2023/08/12 04:18:10;;;;;;;2.57;1.80;;;;;;;;;;5098929;28;20242;-69
2023/08/12 04:20:38;;;;;;;3.10;1.97;;;;;;;;;;5099624;28;20236;-69
2023/08/12 04:23:05;;;;;;;5.10;2.20;;;;;;;;;;5099442;28;20575;-70
2023/08/12 04:25:33;;;;;;;1.87;1.77;;;;;;;;;;5099815;28;20296;-69
2023/08/12 04:28:01;;;;;;;5.27;1.90;;;;;;;;;;5099718;28;20207;-71
2023/08/12 04:30:29;;;;;;;1.95;1.70;;;;;;;;;;5099658;28;20221;-71
2023/08/12 04:32:56;;;;;;;4.73;2.00;;;;;;;;;;5098733;28;20209;-71
2023/08/12 04:35:26;;;;;;;3.83;1.80;;;;;;;;;;5099563;28;20238;-71
2023/08/12 04:37:53;;;;;;;3.73;2.00;;;;;;;;;;5099024;28;20664;-72
2023/08/12 04:40:22;;;;;;;3.50;2.10;;;;;;;;;;5092516;28;20227;-72
2023/08/12 04:42:50;;;;;;;3.17;2.27;;;;;;;;;;5095596;28;20571;-71
2023/08/12 04:45:18;;;;;;;5.57;3.97;;;;;;;;;;5098435;28;20202;-70
2023/08/12 04:47:46;;;;;;;7.27;3.83;;;;;;;;;;5097425;28;20211;-67
2023/08/12 04:50:15;;;;;;;6.63;4.13;;;;;;;;;;5090515;28;20578;-70
2023/08/12 04:52:44;;;;;;;6.37;3.63;;;;;;;;;;5098716;28;20247;-70
2023/08/12 04:55:13;;;;;;;5.23;3.50;;;;;;;;;;5099086;28;20237;-70
2023/08/12 04:57:41;;;;;;;6.10;3.20;;;;;;;;;;5099055;28;20209;-69
2023/08/12 05:00:10;;;;;;;4.57;3.10;;;;;;;;;;5097146;28;20243;-71
2023/08/12 05:02:37;;;;;;;4.00;2.43;;;;;;;;;;5092850;28;20197;-71
2023/08/12 05:05:06;;;;;;;5.80;2.47;;;;;;;;;;5095995;28;20232;-69
2023/08/12 05:07:34;;;;;;;3.87;1.70;;;;;;;;;;5099703;28;20213;-69
2023/08/12 05:10:06;;;;;;;3.67;2.50;;;;;;;;;;5095801;28;20307;-70
2023/08/12 05:12:34;;;;;;;4.03;1.80;;;;;;;;;;5094369;28;20317;-71
2023/08/12 05:15:02;;;;;;;6.23;2.07;;;;;;;;;;5098179;28;20243;-70
2023/08/12 05:17:30;;;;;;;3.63;1.70;;;;;;;;;;5097996;28;20694;-71
2023/08/12 05:19:58;;;;;;;3.37;2.00;;;;;;;;;;5098277;28;20261;-71
2023/08/12 05:22:25;;;;;;;3.20;2.57;;;;;;;;;;5098341;28;20206;-72
2023/08/12 05:24:53;;;;;;;3.40;2.10;;;;;;;;;;5098419;28;20213;-70
2023/08/12 05:27:22;;;;;;;4.33;2.07;;;;;;;;;;5098705;28;20679;-72
2023/08/12 05:29:50;;;;;;;3.47;2.00;;;;;;;;;;5098503;28;20307;-71
2023/08/12 05:32:18;;;;;;;4.80;2.20;;;;;;;;;;5098532;28;20207;-71
2023/08/12 05:34:45;;;;;;;2.53;1.87;;;;;;;;;;5097761;28;20215;-71
2023/08/12 05:37:13;;;;;;;3.20;1.33;;;;;;;;;;5098521;28;20209;-71
2023/08/12 05:39:41;;;;;;;3.37;1.97;;;;;;;;;;5096820;28;20232;-71
2023/08/12 05:42:08;;;;;;;2.97;1.70;;;;;;;;;;5094386;28;20208;-72
2023/08/12 05:44:38;;;;;;;5.83;1.83;;;;;;;;;;5098330;28;20210;-72
2023/08/12 05:47:06;;;;;;;2.27;1.70;;;;;;;;;;5098370;28;20296;-69
2023/08/12 05:49:34;;;;;;;2.23;1.80;;;;;;;;;;5099015;28;20201;-69
2023/08/12 05:52:02;;;;;;;3.60;2.10;;;;;;;;;;5096991;28;20242;-71
2023/08/12 05:54:30;;;;;;;6.40;1.97;;;;;;;;;;5098338;28;20671;-71
2023/08/12 05:56:58;;;;;;;5.03;1.83;;;;;;;;;;5097953;28;20558;-71
2023/08/12 05:59:26;;;;;;;1.80;1.70;;;;;;;;;;5081697;28;20228;-71
2023/08/12 06:01:56;;;;;;;2.07;1.83;;;;;;;;;;5093594;28;20263;-72
2023/08/12 06:04:24;;;;;;;3.53;1.70;;;;;;;;;;5098024;28;20208;-71
2023/08/12 06:06:52;;;;;;;3.20;2.30;;;;;;;;;;5097644;28;20648;-71
2023/08/12 06:09:20;;;;;;;2.50;2.03;;;;;;;;;;5097847;28;20288;-72
2023/08/12 06:11:47;;;;;;;2.10;1.83;;;;;;;;;;5097909;28;20233;-71
2023/08/12 06:14:15;;;;;;;1.98;1.65;;;;;;;;;;5097998;28;20702;-71
2023/08/12 06:16:43;;;;;;;2.77;2.00;;;;;;;;;;5104643;28;20314;-71
2023/08/12 06:19:12;;;;;;;4.30;1.85;;;;;;;;;;5104334;28;20227;-72
2023/08/12 06:21:40;;;;;;;3.00;1.77;;;;;;;;;;5104016;28;20236;-72
2023/08/12 06:24:08;;;;;;;2.00;1.80;;;;;;;;;;5104740;28;20212;-71
2023/08/12 06:26:35;;;;;;;3.25;2.30;;;;;;;;;;5103525;28;20266;-72
2023/08/12 06:29:03;;;;;;;4.10;2.00;;;;;;;;;;5104654;28;20208;-72
2023/08/12 06:31:32;;;;;;;2.45;2.03;;;;;;;;;;5104466;28;20313;-72
2023/08/12 06:34:01;;;;;;;3.15;1.83;;;;;;;;;;5104343;28;20623;-72
2023/08/12 06:36:30;;;;;;;2.08;1.88;;;;;;;;;;5103712;28;20210;-71
2023/08/12 06:38:58;;;;;;;3.17;1.80;;;;;;;;;;5104402;28;20271;-69
2023/08/12 06:41:26;;;;;;;2.85;2.28;;;;;;;;;;5096738;28;20228;-70
2023/08/12 06:43:53;;;;;;;2.22;1.65;;;;;;;;;;5100346;28;20278;-70
2023/08/12 06:46:21;;;;;;;2.83;1.77;;;;;;;;;;5089719;28;20210;-69
2023/08/12 06:48:49;;;;;;;4.53;2.10;;;;;;;;;;5104039;28;20229;-69
2023/08/12 06:51:16;;;;;;;3.75;2.00;;;;;;;;;;5103919;28;20294;-69
2023/08/12 06:53:46;;;;;;;5.03;2.05;;;;;;;;;;5104406;28;20286;-69
2023/08/12 06:56:13;;;;;;;3.10;1.65;;;;;;;;;;5104082;28;20639;-69
2023/08/12 06:58:41;;;;;;;4.93;2.22;;;;;;;;;;5104302;28;20295;-69
2023/08/12 07:01:09;;;;;;;3.30;2.17;;;;;;;;;;5098423;28;20303;-71
2023/08/12 07:03:41;;;;;;;3.38;2.03;;;;;;;;;;5103756;28;20212;-71
2023/08/12 07:06:09;;;;;;;3.60;2.53;;;;;;;;;;5103370;28;20201;-71
2023/08/12 07:08:37;;;;;;;3.53;2.10;;;;;;;;;;5103998;28;20262;-70
2023/08/12 07:11:06;;;;;;;7.03;1.92;;;;;;;;;;5097861;28;20220;-70
2023/08/12 07:13:34;;;;;;;2.00;1.90;;;;;;;;;;5093309;28;20202;-70
2023/08/12 07:16:01;;;;;;;2.38;2.00;;;;;;;;;;5095650;28;20197;-71
2023/08/12 07:18:29;;;;;;;3.38;1.90;;;;;;;;;;5095247;28;20213;-71
2023/08/12 07:20:58;;;;;;;6.60;2.03;;;;;;;;;;5103220;28;20229;-71
2023/08/12 07:23:26;;;;;;;3.80;2.00;;;;;;;;;;5103606;28;20675;-70
2023/08/12 07:25:54;;;;;;;4.88;2.13;;;;;;;;;;5102855;28;20236;-71
2023/08/12 07:28:23;;;;;;;3.72;2.00;;;;;;;;;;5099899;28;20215;-68
2023/08/12 07:30:52;;;;;;;4.95;2.10;;;;;;;;;;5100091;28;20224;-70
2023/08/12 07:33:20;;;;;;;5.30;2.28;;;;;;;;;;5099460;28;20206;-67
2023/08/12 07:35:48;;;;;;;4.13;2.50;;;;;;;;;;5100108;28;20232;-67
2023/08/12 07:38:16;;;;;;;4.57;2.47;;;;;;;;;;5100198;28;20265;-67
2023/08/12 07:40:44;;;;;;;2.65;2.13;;;;;;;;;;5089865;28;20695;-66
2023/08/12 07:43:11;;;;;;;3.65;2.25;;;;;;;;;;5100010;28;20209;-67
2023/08/12 07:45:41;;;;;;;2.58;2.38;;;;;;;;;;5100153;28;20689;-67
2023/08/12 07:48:09;;;;;;;5.63;2.50;;;;;;;;;;5100085;28;20284;-65
2023/08/12 07:50:36;;;;;;;4.25;2.58;;;;;;;;;;5098950;28;20286;-66
2023/08/12 07:53:04;;;;;;;3.50;2.35;;;;;;;;;;5099680;28;20207;-69
2023/08/12 07:55:32;;;;;;;4.47;2.25;;;;;;;;;;5100034;28;20251;-67
2023/08/12 07:58:00;;;;;;;2.80;2.13;;;;;;;;;;5099833;28;20209;-66
2023/08/12 08:00:27;;;;;;;3.53;2.30;;;;;;;;;;5088821;28;20241;-66
2023/08/12 08:02:57;;;;;;;2.90;2.05;;;;;;;;;;5100022;28;20732;-67
2023/08/12 08:05:25;;;;;;;3.20;2.20;;;;;;;;;;5099631;28;20209;-66
2023/08/12 08:07:52;;;;;;;3.05;2.20;;;;;;;;;;5098702;28;20546;-66
2023/08/12 08:10:20;;;;;;;2.53;1.98;;;;;;;;;;5099739;28;20225;-67
2023/08/12 08:12:48;;;;;;;3.47;2.20;;;;;;;;;;5099796;28;20273;-68
2023/08/12 08:15:16;;;;;;;3.78;1.95;;;;;;;;;;5099471;28;20414;-67
2023/08/12 08:17:44;;;;;;;3.70;2.63;;;;;;;;;;5099721;28;20292;-68
2023/08/12 08:20:13;;;;;;;4.38;2.00;;;;;;;;;;5099256;28;20304;-67
2023/08/12 08:22:41;;;;;;;2.55;2.25;;;;;;;;;;5099454;28;20652;-67
2023/08/12 08:25:09;;;;;;;2.40;1.90;;;;;;;;;;5098844;28;20578;-68
2023/08/12 08:27:36;;;;;;;4.03;2.35;;;;;;;;;;5099545;28;20277;-67
2023/08/12 08:30:04;;;;;;;5.22;2.30;;;;;;;;;;5099508;28;20222;-67
2023/08/12 08:32:32;;;;;;;3.88;2.80;;;;;;;;;;5099318;28;20202;-67
2023/08/12 08:35:00;;;;;;;2.92;2.22;;;;;;;;;;5099585;28;20205;-67
2023/08/12 08:37:29;;;;;;;6.90;2.33;;;;;;;;;;5098416;28;20212;-67
2023/08/12 08:39:57;;;;;;;3.10;2.40;;;;;;;;;;5098877;28;20224;-66
2023/08/12 08:42:25;;;;;;;4.28;2.47;;;;;;;;;;5098018;28;20284;-67
2023/08/12 08:44:54;;;;;;;4.25;2.45;;;;;;;;;;5099418;28;20664;-67
2023/08/12 08:47:25;;;;;;;2.60;2.30;;;;;;;;;;5098850;28;20201;-67
2023/08/12 08:49:54;;;;;;;5.65;3.47;;;;;;;;;;5098956;28;20696;-68
2023/08/12 08:52:22;;;;;;;3.17;2.50;;;;;;;;;;5098646;28;20672;-66
2023/08/12 08:54:51;;;;;;;3.45;2.67;;;;;;;;;;5098897;28;20228;-66
2023/08/12 08:57:20;;;;;;;3.58;2.47;;;;;;;;;;5098903;28;20233;-66
2023/08/12 09:00:07;;;;;;;3.22;2.00;;;;;;;;;;5093662;28;20229;-66
2023/08/12 09:02:44;;;;;;;3.47;2.20;;;;;;;;;;5096496;28;20189;-66
2023/08/12 09:05:12;;;;;;;2.97;2.47;;;;;;;;;;5088381;28;20201;-66
2023/08/12 09:07:40;;;;;;;3.00;2.28;;;;;;;;;;5088498;28;20216;-66
2023/08/12 09:10:10;;;;;;;2.65;2.22;;;;;;;;;;5098000;28;20224;-67
2023/08/12 09:12:41;;;;;;;4.40;2.38;;;;;;;;;;5093212;28;20197;-67
2023/08/12 09:15:10;;;;;;;2.58;2.05;;;;;;;;;;5094711;28;20284;-66
2023/08/12 09:17:38;;;;;;;3.40;2.38;;;;;;;;;;5098109;28;20201;-66
2023/08/12 09:20:11;;;;;;;4.03;2.78;;;;;;;;;;5098178;28;20229;-66
2023/08/12 09:22:38;;;;;;;4.82;2.67;;;;;;;;;;5098144;28;20233;-67
2023/08/12 09:25:08;;;;;;;4.40;2.70;;;;;;;;;;5098798;28;20640;-67
2023/08/12 09:27:38;;;;;;;4.13;2.58;;;;;;;;;;5098554;28;20225;-67
2023/08/12 09:30:06;;;;;;;3.92;2.78;;;;;;;;;;5098355;28;20248;-66
2023/08/12 09:32:35;;;;;;;3.03;2.80;;;;;;;;;;5087251;28;20250;-66
2023/08/12 09:35:05;;;;;;;7.03;2.80;;;;;;;;;;5098483;28;20201;-67
2023/08/12 09:37:33;;;;;;;6.35;3.45;;;;;;;;;;5098366;28;20205;-67
2023/08/12 09:40:04;;;;;;;5.85;2.88;;;;;;;;;;5094009;28;20625;-68
2023/08/12 09:42:33;;;;;;;3.63;2.35;;;;;;;;;;5097996;28;20320;-66
2023/08/12 09:45:03;;;;;;;6.07;2.75;;;;;;;;;;5097971;28;20663;-65
2023/08/12 09:47:31;;;;;;;5.95;2.58;;;;;;;;;;5092956;28;20198;-67
2023/08/12 09:49:59;;;;;;;3.88;2.30;;;;;;;;;;5092438;28;20312;-67
2023/08/12 09:52:28;;;;;;;3.15;2.42;;;;;;;;;;5098009;28;20215;-67
2023/08/12 09:54:57;;;;;;;4.57;2.40;;;;;;;;;;5098181;28;20292;-66
2023/08/12 09:57:26;;;;;;;5.88;2.78;;;;;;;;;;5098274;28;20205;-66
2023/08/12 09:59:54;;;;;;;3.30;2.30;;;;;;;;;;5091343;28;20719;-65
2023/08/12 10:02:24;;;;;;;5.93;2.55;;;;;;;;;;5097719;28;20257;-66
2023/08/12 10:04:55;;;;;;;2.83;2.38;;;;;;;;;;5097675;28;20201;-66
2023/08/12 10:07:24;;;;;;;4.38;2.70;;;;;;;;;;5086116;28;20212;-66
2023/08/12 10:09:52;;;;;;;6.68;3.00;;;;;;;;;;5090974;28;20305;-66
2023/08/12 10:12:20;;;;;;;4.05;2.53;;;;;;;;;;5092500;28;20246;-66
2023/08/12 10:14:48;;;;;;;4.35;2.28;;;;;;;;;;5098034;28;20205;-66
2023/08/12 10:17:16;;;;;;;3.83;2.58;;;;;;;;;;5086390;28;20301;-66
2023/08/12 10:20:07;;;;;;;7.63;3.25;;;;;;;;;;5097873;28;20229;-66
2023/08/12 10:22:35;;;;;;;5.15;2.50;;;;;;;;;;5094712;28;20229;-66
2023/08/12 10:25:04;;;;;;;5.03;2.90;;;;;;;;;;5094574;28;20209;-66
2023/08/12 10:27:32;;;;;;;4.20;2.47;;;;;;;;;;5096817;28;20284;-72
2023/08/12 10:30:03;;;;;;;5.53;2.50;;;;;;;;;;5096643;28;20217;-73
2023/08/12 10:32:32;;;;;;;4.53;2.80;;;;;;;;;;5095629;28;20649;-72
2023/08/12 10:35:00;;;;;;;2.92;2.20;;;;;;;;;;5097260;28;20201;-72
2023/08/12 10:37:32;;;;;;;3.25;2.53;;;;;;;;;;5097588;28;20209;-71
2023/08/12 10:40:00;;;;;;;7.55;2.88;;;;;;;;;;5095620;28;20221;-71
2023/08/12 10:42:43;;;;;;;4.10;2.55;;;;;;;;;;5097677;28;20335;-71
2023/08/12 10:45:12;;;;;;;4.60;2.70;;;;;;;;;;5097401;28;20574;-72
2023/08/12 10:47:40;;;;;;;4.80;2.88;;;;;;;;;;5090000;28;20276;-72
2023/08/12 10:50:17;;;;;;;4.63;2.65;;;;;;;;;;5094897;28;20264;-72
2023/08/12 10:52:46;;;;;;;5.45;2.72;;;;;;;;;;5097597;28;20208;-75
2023/08/12 10:55:18;;;;;;;3.38;2.70;;;;;;;;;;5096891;28;20198;-73
2023/08/12 10:57:46;;;;;;;5.00;2.92;;;;;;;;;;5090960;28;20209;-73
2023/08/12 11:00:14;;;;;;;4.80;3.75;;;;;;;;;;5090832;28;20237;-73
2023/08/12 11:02:45;;;;;;;5.72;3.00;;;;;;;;;;5096268;28;20221;-73
2023/08/12 11:05:13;;;;;;;5.72;3.70;;;;;;;;;;5100688;28;20236;-73
2023/08/12 11:07:42;;;;;;;7.22;4.13;;;;;;;;;;5098072;28;20205;-72
2023/08/12 11:10:13;;;;;;;6.70;4.00;;;;;;;;;;5101023;28;20228;-74
2023/08/12 11:12:42;;;;;;;4.82;4.32;;;;;;;;;;5097005;28;20194;-73
2023/08/12 11:15:10;;;;;;;5.57;2.97;;;;;;;;;;5099626;28;20247;-74
2023/08/12 11:17:39;;;;;;;5.72;3.97;;;;;;;;;;5096931;28;20538;-66
2023/08/12 11:20:09;;;;;;;3.90;2.33;;;;;;;;;;5092953;28;20232;-67
2023/08/12 11:22:38;;;;;;;4.32;2.75;;;;;;;;;;5099896;28;20221;-66
2023/08/12 11:25:08;;;;;;;5.50;2.72;;;;;;;;;;5098993;28;20231;-66
2023/08/12 11:27:39;;;;;;;2.95;2.33;;;;;;;;;;5100560;28;20201;-66
2023/08/12 11:30:07;;;;;;;5.50;3.22;;;;;;;;;;5100738;28;20217;-66
2023/08/12 11:32:35;;;;;;;8.73;2.92;;;;;;;;;;5099390;28;20653;-66
2023/08/12 11:35:04;;;;;;;3.80;2.65;;;;;;;;;;5100385;28;20228;-66
2023/08/12 11:37:31;;;;;;;5.97;2.88;;;;;;;;;;5100453;28;20209;-66
2023/08/12 11:39:59;;;;;;;3.13;2.40;;;;;;;;;;5096975;28;20228;-66
2023/08/12 11:42:27;;;;;;;7.53;2.88;;;;;;;;;;5100528;28;20695;-66
2023/08/12 11:44:56;;;;;;;3.25;2.72;;;;;;;;;;5100636;28;20209;-65
2023/08/12 11:47:24;;;;;;;4.68;3.20;;;;;;;;;;5096261;28;20201;-66
2023/08/12 11:49:53;;;;;;;3.25;2.45;;;;;;;;;;5095256;28;20232;-66
2023/08/12 11:52:21;;;;;;;4.22;2.70;;;;;;;;;;5100181;28;20205;-65
2023/08/12 11:54:49;;;;;;;4.63;2.72;;;;;;;;;;5097650;28;20201;-66
2023/08/12 11:57:17;;;;;;;4.00;2.63;;;;;;;;;;5092408;28;20544;-65
2023/08/12 11:59:45;;;;;;;3.50;2.70;;;;;;;;;;5096560;28;20287;-66
2023/08/12 12:02:16;;;;;;;7.60;2.92;;;;;;;;;;5097237;28;20236;-67
2023/08/12 12:04:46;;;;;;;10.45;3.45;;;;;;;;;;5089245;28;20289;-66
2023/08/12 12:07:21;;;;;;;4.38;2.88;;;;;;;;;;5084639;28;20276;-66
2023/08/12 12:09:51;;;;;;;5.38;2.88;;;;;;;;;;5099027;28;20205;-68
2023/08/12 12:12:19;;;;;;;2.92;2.63;;;;;;;;;;5099086;28;20284;-67
2023/08/12 12:14:47;;;;;;;7.38;3.42;;;;;;;;;;5099408;28;20209;-68
2023/08/12 12:17:17;;;;;;;4.43;3.13;;;;;;;;;;5099416;28;20391;-70
2023/08/12 12:19:45;;;;;;;4.68;2.92;;;;;;;;;;5099933;28;20193;-69
2023/08/12 12:22:13;;;;;;;7.32;3.20;;;;;;;;;;5100179;28;20268;-70
2023/08/12 12:24:45;;;;;;;6.32;3.60;;;;;;;;;;5100264;28;20228;-71
2023/08/12 12:27:12;;;;;;;7.13;3.05;;;;;;;;;;5093770;28;20564;-71
2023/08/12 12:29:41;;;;;;;3.83;3.28;;;;;;;;;;5095532;28;20197;-71
2023/08/12 12:32:09;;;;;;;5.95;3.13;;;;;;;;;;5090629;28;20216;-71
2023/08/12 12:34:40;;;;;;;3.63;3.00;;;;;;;;;;5093791;28;20559;-71
2023/08/12 12:37:07;;;;;;;7.05;3.70;;;;;;;;;;5089330;28;20874;-70
2023/08/12 12:39:35;;;;;;;3.42;3.13;;;;;;;;;;5095812;28;20281;-71
2023/08/12 12:42:03;;;;;;;5.20;3.10;;;;;;;;;;5096529;28;20209;-70
2023/08/12 12:44:31;;;;;;;3.63;2.95;;;;;;;;;;5093618;28;20228;-70
2023/08/12 12:46:59;;;;;;;3.55;3.17;;;;;;;;;;5099334;28;20212;-69
2023/08/12 12:49:30;;;;;;;3.40;3.10;;;;;;;;;;5093296;28;20290;-71
2023/08/12 12:51:59;;;;;;;4.57;3.03;;;;;;;;;;5098572;28;20197;-69
2023/08/12 12:54:27;;;;;;;8.40;3.13;;;;;;;;;;5096533;28;20199;-70
2023/08/12 12:56:55;;;;;;;5.25;3.17;;;;;;;;;;5096398;28;20197;-69
2023/08/12 12:59:23;;;;;;;5.05;3.05;;;;;;;;;;5095954;28;20211;-68
2023/08/12 13:01:51;;;;;;;5.60;2.92;;;;;;;;;;5098340;28;20229;-67
2023/08/12 13:04:22;;;;;;;7.82;3.22;;;;;;;;;;5095293;28;20667;-69
2023/08/12 13:06:51;;;;;;;6.30;3.47;;;;;;;;;;5097002;28;20300;-70
2023/08/12 13:09:20;;;;;;;8.30;3.60;;;;;;;;;;5097080;28;20695;-70
2023/08/12 13:11:48;;;;;;;4.57;2.97;;;;;;;;;;5098566;28;20573;-70
2023/08/12 13:14:18;;;;;;;6.00;3.50;;;;;;;;;;5096900;28;20653;-70
2023/08/12 13:16:46;;;;;;;3.25;2.88;;;;;;;;;;5098651;28;20213;-71
2023/08/12 13:19:14;;;;;;;4.75;3.00;;;;;;;;;;5098332;28;20205;-70
2023/08/12 13:21:42;;;;;;;6.57;2.78;;;;;;;;;;5098194;28;20225;-70
2023/08/12 13:24:10;;;;;;;4.70;3.20;;;;;;;;;;5097575;28;20225;-71
2023/08/12 13:26:40;;;;;;;4.60;3.65;;;;;;;;;;5097957;28;20194;-69
2023/08/12 13:29:08;;;;;;;6.40;3.30;;;;;;;;;;5098121;28;20209;-69
2023/08/12 13:31:36;;;;;;;4.55;3.08;;;;;;;;;;5097400;28;20255;-69
2023/08/12 13:34:04;;;;;;;3.80;3.35;;;;;;;;;;5091690;28;20209;-69
2023/08/12 13:36:33;;;;;;;4.53;3.17;;;;;;;;;;5095232;28;20232;-68
2023/08/12 13:39:02;;;;;;;5.70;3.60;;;;;;;;;;5095351;28;20216;-68
2023/08/12 13:41:31;;;;;;;5.00;3.10;;;;;;;;;;5093233;28;20229;-68
2023/08/12 13:44:00;;;;;;;4.07;3.17;;;;;;;;;;5098075;28;20224;-69
2023/08/12 13:46:28;;;;;;;4.05;2.78;;;;;;;;;;5098349;28;20193;-68
2023/08/12 13:48:58;;;;;;;5.18;2.83;;;;;;;;;;5097111;28;20201;-69
2023/08/12 13:51:26;;;;;;;3.72;3.08;;;;;;;;;;5097643;28;20655;-69
2023/08/12 13:53:54;;;;;;;6.25;3.08;;;;;;;;;;5097586;28;20267;-68
2023/08/12 13:56:22;;;;;;;3.38;2.88;;;;;;;;;;5097914;28;20201;-68
2023/08/12 13:58:50;;;;;;;6.18;3.15;;;;;;;;;;5097509;28;20701;-68
2023/08/12 14:01:21;;;;;;;4.05;3.13;;;;;;;;;;5097498;28;20241;-68
2023/08/12 14:03:51;;;;;;;10.05;3.28;;;;;;;;;;5097400;28;20316;-68
2023/08/12 14:06:19;;;;;;;5.18;2.90;;;;;;;;;;5096586;28;20618;-68
2023/08/12 14:08:47;;;;;;;6.03;3.25;;;;;;;;;;5097571;28;20205;-69
2023/08/12 14:11:16;;;;;;;3.75;3.08;;;;;;;;;;5097386;28;20688;-67
2023/08/12 14:13:45;;;;;;;4.80;3.10;;;;;;;;;;5097453;28;20209;-68
2023/08/12 14:16:13;;;;;;;5.18;3.10;;;;;;;;;;5097506;28;20240;-69
2023/08/12 14:18:43;;;;;;;5.28;3.45;;;;;;;;;;5097280;28;20680;-69
2023/08/12 14:21:11;;;;;;;10.82;3.20;;;;;;;;;;5096027;28;20251;-68
2023/08/12 14:23:39;;;;;;;3.47;2.90;;;;;;;;;;5097522;28;20312;-70
2023/08/12 14:26:08;;;;;;;5.03;3.00;;;;;;;;;;5097464;28;20201;-70
2023/08/12 14:28:37;;;;;;;5.82;2.80;;;;;;;;;;5096799;28;20202;-69
2023/08/12 14:31:05;;;;;;;4.75;2.83;;;;;;;;;;5097428;28;20258;-68
2023/08/12 14:33:33;;;;;;;5.03;2.88;;;;;;;;;;5097273;28;20209;-68
2023/08/12 14:36:03;;;;;;;5.82;3.25;;;;;;;;;;5086737;28;20205;-67
2023/08/12 14:38:32;;;;;;;5.28;3.30;;;;;;;;;;5087648;28;20212;-67
2023/08/12 14:41:01;;;;;;;10.13;3.53;;;;;;;;;;5089340;28;20369;-68
2023/08/12 14:43:29;;;;;;;6.07;2.70;;;;;;;;;;5101087;28;20220;-69
2023/08/12 14:45:57;;;;;;;4.30;2.92;;;;;;;;;;5101531;28;20211;-70
2023/08/12 14:48:27;;;;;;;8.75;3.20;;;;;;;;;;5096430;28;20201;-69
2023/08/12 14:50:57;;;;;;;5.03;3.00;;;;;;;;;;5096037;28;20231;-68